Nasudden, Sweden

3:21 AM CET on February 07, 2016 (GMT +0100)
Visby | | Change Station
CLOSE
Current Station
Airport
Location: Visby Flygplats,
Elevation: 154 ft
Nearby Weather Stations

Elev 154 ft 57.66 °N, 18.35 °E | Updated 31 minutes ago

Overcast
Overcast
41 °F
Feels Like 34 °F
N
14
Wind Variable Wind from South

Today
High -- | Low -- °F
--% Chance of Precip.
Yesterday
High -- | Low -- °F
Precip. -- in
Pressure 29.65 in
Visibility 2.8 miles
Clouds Overcast 500 ft
Windchill 34 °F
Dew Point 41 °F
Humidity 100%
Rainfall 0.00 in
Snow Depth Not available.
7:35 AM 4:27 PM
Waning Crescent, 3% visible
METAR ESSV 070150Z AUTO 19012KT 4500 BR OVC005/// 05/05 Q1004
Pressure 29.65 in
Visibility 2.8 miles
Clouds Overcast 500 ft
Windchill 34 °F
Dew Point 41 °F
Humidity 100%
Rainfall 0.00 in
Snow Depth Not available.
7:35 AM 4:27 PM
Waning Crescent, 3% visible
METAR ESSV 070150Z AUTO 19012KT 4500 BR OVC005/// 05/05 Q1004

10-Day Weather Forecast

Almanac

Astronomy

Feb. 07, 2016 Rise Set
Actual Time
Civil Twilight
Nautical Twilight
Astronomical Twilight
Moon
Length of Visible Light
Length of Day
Tomorrow will be .
, % of the Moon is Illuminated

Today's Extremes

Country Highs Country Lows

Community

WunderPhotos

Upload Photos

1,891,139 photos uploaded!

WunderBlog® & News

Nearby

Air Quality

  Air Quality AQ Index Pollutant
Not available.

Snow Depth

Station Depth Elevation

Earthquake Activity

City Distance Mag. Time & Date
Minimum magnitude displayed is 2.5.

Coastal Water Temperatures

Place Temperature

Stations

Nearby Weather Stations

Station Location Temp. Windchill Dew Point Humidity Wind Precip. Elev Updated Type